METAR Data
IDs: Format: Raw Decoded Include TAF

Data at: 1436 UTC 19 Feb 2020

METAR for:KDRO (Durango/La Plata Cnt, CO, US)
Text:KDRO 191353Z AUTO 07008KT 10SM SCT110 M03/M08 A3011 RMK AO2 SLP214 T10281078
Temperature: -2.8°C ( 27°F)
Dewpoint: -7.8°C ( 18°F) [RH = 68%]
Pressure (altimeter):30.11 inches Hg (1019.7 mb) [Sea level pressure: 1021.4 mb]
Winds:from the ENE (70 degrees) at 9 MPH (8 knots; 4.1 m/s)
Visibility:10 or more sm (16+ km)
Ceiling:at least 12,000 feet AGL
Clouds: scattered clouds at 11000 feet AGL
QC Flag:automated observation with no human augmentation